Time;durP1;ratioP1;P1;durP2;ratioP2;P2;SDS_P1;SDS_P2;PMS_P1;PMS_P2;Temp;Humidity;BMP_temperature;BMP_pressure;BME280_temperature;BME280_humidity;BME280_pressure;Samples;Min_cycle;Max_cycle;Signal;HPM_P1;HPM_P2
2023/08/24 00:01:47;;;;;;;4.95;3.33;;;;;;;;;;6309899;28;20302;-72
2023/08/24 00:04:51;;;;;;;11.95;3.08;;;;;;;;;;6308967;28;20298;-72
2023/08/24 00:07:55;;;;;;;18.60;3.10;;;;;;;;;;6309338;28;20286;-72
2023/08/24 00:11:00;;;;;;;5.20;3.03;;;;;;;;;;6309873;28;20291;-73
2023/08/24 00:14:05;;;;;;;7.45;3.05;;;;;;;;;;6310307;28;20566;-73
2023/08/24 00:17:09;;;;;;;12.45;3.47;;;;;;;;;;6314660;28;20258;-71
2023/08/24 00:20:13;;;;;;;3.67;2.65;;;;;;;;;;6314487;28;20290;-73
2023/08/24 00:23:18;;;;;;;3.63;3.33;;;;;;;;;;6313972;28;20638;-72
2023/08/24 00:26:21;;;;;;;3.40;3.00;;;;;;;;;;6314353;28;20353;-71
2023/08/24 00:29:27;;;;;;;3.25;2.88;;;;;;;;;;6312616;28;20317;-73
2023/08/24 00:32:34;;;;;;;2.85;2.75;;;;;;;;;;6315921;28;20294;-72
2023/08/24 00:35:38;;;;;;;4.80;3.47;;;;;;;;;;6296117;28;20294;-72
2023/08/24 00:38:43;;;;;;;3.63;3.10;;;;;;;;;;6314039;28;20286;-72
2023/08/24 00:41:46;;;;;;;3.78;3.47;;;;;;;;;;6312623;28;20302;-72
2023/08/24 00:44:52;;;;;;;3.67;3.40;;;;;;;;;;6311790;28;20294;-72
2023/08/24 00:47:56;;;;;;;7.53;3.40;;;;;;;;;;6312117;28;20310;-72
2023/08/24 00:51:01;;;;;;;4.93;3.70;;;;;;;;;;6295753;28;20286;-72
2023/08/24 00:54:05;;;;;;;3.80;3.50;;;;;;;;;;6312187;28;20294;-72
2023/08/24 00:57:09;;;;;;;9.23;3.83;;;;;;;;;;6312591;28;20294;-71
2023/08/24 01:00:16;;;;;;;7.10;3.78;;;;;;;;;;6313451;28;20293;-72
2023/08/24 01:03:19;;;;;;;3.72;3.47;;;;;;;;;;6318477;22;20452;-71
2023/08/24 01:06:23;;;;;;;4.10;3.80;;;;;;;;;;6289024;28;20291;-71
2023/08/24 01:09:27;;;;;;;4.03;3.58;;;;;;;;;;6309677;28;20310;-71
2023/08/24 01:12:41;;;;;;;3.75;3.50;;;;;;;;;;6300121;28;20471;-72
2023/08/24 01:15:49;;;;;;;3.45;3.25;;;;;;;;;;6273753;28;20291;-71
2023/08/24 01:18:55;;;;;;;3.63;3.45;;;;;;;;;;6274350;28;20434;-70
2023/08/24 01:22:03;;;;;;;3.78;3.67;;;;;;;;;;6286276;28;20307;-70
2023/08/24 01:25:13;;;;;;;3.38;3.28;;;;;;;;;;6287582;28;20307;-70
2023/08/24 01:28:20;;;;;;;3.58;3.28;;;;;;;;;;6287560;28;20287;-70
2023/08/24 01:31:26;;;;;;;3.85;3.60;;;;;;;;;;6287435;28;20296;-70
2023/08/24 01:34:29;;;;;;;3.55;3.40;;;;;;;;;;6281458;28;20295;-70
2023/08/24 01:37:33;;;;;;;4.22;3.25;;;;;;;;;;6286888;28;20294;-70
2023/08/24 01:40:57;;;;;;;4.25;3.67;;;;;;;;;;6286953;28;20291;-70
2023/08/24 01:44:02;;;;;;;3.67;3.58;;;;;;;;;;6286107;28;20291;-70
2023/08/24 01:47:09;;;;;;;3.58;3.35;;;;;;;;;;6287561;28;20240;-70
2023/08/24 01:50:13;;;;;;;3.30;3.10;;;;;;;;;;6287159;28;20299;-70
2023/08/24 01:53:17;;;;;;;3.30;3.00;;;;;;;;;;6286870;28;20304;-70
2023/08/24 01:56:21;;;;;;;3.38;3.13;;;;;;;;;;6287420;28;20311;-70
2023/08/24 01:59:26;;;;;;;3.47;3.20;;;;;;;;;;6284927;28;20301;-70
2023/08/24 02:02:30;;;;;;;3.72;3.45;;;;;;;;;;6285343;28;20307;-70
2023/08/24 02:05:34;;;;;;;3.67;3.35;;;;;;;;;;6309701;28;20298;-70
2023/08/24 02:08:38;;;;;;;4.00;3.70;;;;;;;;;;6311052;28;20285;-71
2023/08/24 02:11:42;;;;;;;3.92;3.15;;;;;;;;;;6309837;28;20298;-71
2023/08/24 02:14:47;;;;;;;5.47;3.40;;;;;;;;;;6297144;28;20306;-70
2023/08/24 02:17:52;;;;;;;3.05;2.95;;;;;;;;;;6311188;28;20409;-70
2023/08/24 02:20:56;;;;;;;3.38;3.17;;;;;;;;;;6310016;28;20297;-70
2023/08/24 02:24:00;;;;;;;6.45;3.38;;;;;;;;;;6311315;28;20294;-71
2023/08/24 02:27:04;;;;;;;3.47;3.28;;;;;;;;;;6310099;28;20301;-70
2023/08/24 02:30:11;;;;;;;4.05;3.70;;;;;;;;;;6311022;28;20298;-70
2023/08/24 02:33:15;;;;;;;3.33;3.17;;;;;;;;;;6308859;28;20591;-70
2023/08/24 02:36:19;;;;;;;3.90;3.15;;;;;;;;;;6310718;28;20295;-70
2023/08/24 02:39:23;;;;;;;4.95;3.60;;;;;;;;;;6309027;28;20567;-70
2023/08/24 02:42:27;;;;;;;3.90;3.20;;;;;;;;;;6309290;28;20477;-70
2023/08/24 02:45:32;;;;;;;5.68;3.40;;;;;;;;;;6310780;28;20358;-71
2023/08/24 02:48:36;;;;;;;2.85;2.75;;;;;;;;;;6310958;28;20290;-72
2023/08/24 02:51:40;;;;;;;4.55;3.03;;;;;;;;;;6308878;28;20286;-70
2023/08/24 02:54:44;;;;;;;3.25;3.08;;;;;;;;;;6310287;28;20508;-71
2023/08/24 02:57:48;;;;;;;3.58;3.28;;;;;;;;;;6293606;28;20290;-71
2023/08/24 03:00:53;;;;;;;3.38;3.08;;;;;;;;;;6290710;28;20305;-70
2023/08/24 03:03:58;;;;;;;3.33;3.13;;;;;;;;;;6301964;28;20299;-74
2023/08/24 03:07:03;;;;;;;4.78;2.83;;;;;;;;;;6315763;28;20293;-70
2023/08/24 03:10:07;;;;;;;3.53;2.90;;;;;;;;;;6312366;28;20286;-70
2023/08/24 03:13:11;;;;;;;3.10;2.88;;;;;;;;;;6329079;28;20297;-70
2023/08/24 03:16:16;;;;;;;3.30;3.10;;;;;;;;;;6317241;28;20470;-71
2023/08/24 03:19:20;;;;;;;3.70;3.30;;;;;;;;;;6325033;28;20298;-70
2023/08/24 03:22:24;;;;;;;5.35;3.13;;;;;;;;;;6290987;28;20305;-71
2023/08/24 03:25:28;;;;;;;17.80;3.70;;;;;;;;;;6291190;28;20302;-70
2023/08/24 03:28:32;;;;;;;10.52;3.63;;;;;;;;;;6290711;28;20298;-70
2023/08/24 03:31:38;;;;;;;7.00;3.15;;;;;;;;;;6291592;28;20306;-70
2023/08/24 03:34:42;;;;;;;7.43;3.45;;;;;;;;;;6309228;28;20480;-72
2023/08/24 03:37:45;;;;;;;9.60;3.10;;;;;;;;;;6311059;28;20387;-70
2023/08/24 03:40:49;;;;;;;13.52;3.22;;;;;;;;;;6335170;28;20313;-71
2023/08/24 03:43:54;;;;;;;10.13;2.70;;;;;;;;;;6315275;28;20290;-71
2023/08/24 03:47:00;;;;;;;15.50;3.30;;;;;;;;;;6316607;28;20294;-71
2023/08/24 03:50:04;;;;;;;8.32;3.05;;;;;;;;;;6291255;28;20370;-72
2023/08/24 03:53:08;;;;;;;6.55;2.95;;;;;;;;;;6290716;28;20301;-69
2023/08/24 03:56:12;;;;;;;2.90;2.80;;;;;;;;;;6308200;28;20433;-70
2023/08/24 03:59:15;;;;;;;9.48;2.95;;;;;;;;;;6309149;28;20299;-71
2023/08/24 04:02:21;;;;;;;2.65;2.45;;;;;;;;;;6290659;28;20440;-71
2023/08/24 04:05:25;;;;;;;12.95;3.25;;;;;;;;;;6305935;28;20302;-70
2023/08/24 04:08:29;;;;;;;3.95;2.83;;;;;;;;;;6307617;28;20574;-70
2023/08/24 04:11:33;;;;;;;4.15;2.80;;;;;;;;;;6339445;28;20309;-71
2023/08/24 04:14:37;;;;;;;5.70;3.10;;;;;;;;;;6329927;28;20289;-71
2023/08/24 04:17:42;;;;;;;3.47;2.78;;;;;;;;;;6315268;28;20289;-71
2023/08/24 04:20:47;;;;;;;3.03;2.80;;;;;;;;;;6315835;28;20563;-71
2023/08/24 04:23:51;;;;;;;2.95;2.70;;;;;;;;;;6333706;28;20297;-70
2023/08/24 04:26:54;;;;;;;3.13;2.92;;;;;;;;;;6334173;28;20460;-70
2023/08/24 04:29:58;;;;;;;6.75;2.72;;;;;;;;;;6333653;28;20289;-70
2023/08/24 04:33:04;;;;;;;2.80;2.60;;;;;;;;;;6333748;28;20326;-70
2023/08/24 04:36:08;;;;;;;3.40;3.30;;;;;;;;;;6334652;28;20301;-69
2023/08/24 04:39:12;;;;;;;3.38;2.70;;;;;;;;;;6333807;28;20285;-70
2023/08/24 04:42:16;;;;;;;3.90;2.65;;;;;;;;;;6334090;28;20298;-71
2023/08/24 04:45:20;;;;;;;3.28;3.00;;;;;;;;;;6314269;28;20320;-70
2023/08/24 04:48:26;;;;;;;4.03;3.00;;;;;;;;;;6333362;28;20488;-69
2023/08/24 04:51:30;;;;;;;3.03;2.80;;;;;;;;;;6333924;28;20388;-70
2023/08/24 04:54:34;;;;;;;3.33;2.90;;;;;;;;;;6333638;28;20293;-69
2023/08/24 04:57:38;;;;;;;3.33;2.70;;;;;;;;;;6333435;28;20309;-70
2023/08/24 05:00:42;;;;;;;4.07;2.92;;;;;;;;;;6336880;28;20622;-70
2023/08/24 05:03:47;;;;;;;5.05;2.70;;;;;;;;;;6311026;28;20306;-70
2023/08/24 05:06:51;;;;;;;3.05;2.63;;;;;;;;;;6313492;28;20346;-70
2023/08/24 05:09:55;;;;;;;5.55;2.70;;;;;;;;;;6317229;28;20468;-70
2023/08/24 05:12:59;;;;;;;2.88;2.67;;;;;;;;;;6337936;28;20288;-69
2023/08/24 05:16:05;;;;;;;4.00;3.20;;;;;;;;;;6336852;28;20314;-71
2023/08/24 05:19:10;;;;;;;3.20;2.60;;;;;;;;;;6338353;28;20464;-70
2023/08/24 05:22:14;;;;;;;10.15;2.92;;;;;;;;;;6338503;28;20322;-70
2023/08/24 05:25:18;;;;;;;4.20;2.70;;;;;;;;;;6337671;28;20473;-70
2023/08/24 05:28:22;;;;;;;3.25;2.95;;;;;;;;;;6337868;28;20285;-70
2023/08/24 05:31:26;;;;;;;2.67;2.58;;;;;;;;;;6337958;28;20301;-70
2023/08/24 05:34:31;;;;;;;4.85;2.47;;;;;;;;;;6337150;28;20289;-70
2023/08/24 05:37:36;;;;;;;5.32;2.80;;;;;;;;;;6338023;28;20289;-70
2023/08/24 05:40:41;;;;;;;3.08;2.88;;;;;;;;;;6338580;28;20309;-70
2023/08/24 05:43:45;;;;;;;4.10;2.80;;;;;;;;;;6337580;28;20289;-70
2023/08/24 05:46:48;;;;;;;4.85;2.75;;;;;;;;;;6338123;28;20293;-72
2023/08/24 05:49:54;;;;;;;6.03;2.72;;;;;;;;;;6337272;28;20503;-70
2023/08/24 05:52:57;;;;;;;2.92;2.58;;;;;;;;;;6337381;28;20289;-70
2023/08/24 05:56:01;;;;;;;3.67;2.70;;;;;;;;;;6335201;28;20416;-71
2023/08/24 05:59:05;;;;;;;4.13;2.70;;;;;;;;;;6336757;28;20298;-71
2023/08/24 06:02:09;;;;;;;5.88;2.83;;;;;;;;;;6337194;28;20242;-69
2023/08/24 06:05:14;;;;;;;6.18;2.90;;;;;;;;;;6355894;28;20301;-70
2023/08/24 06:08:18;;;;;;;5.53;3.00;;;;;;;;;;6336464;28;20294;-70
2023/08/24 06:11:22;;;;;;;6.57;3.00;;;;;;;;;;6336292;28;20321;-70
2023/08/24 06:14:26;;;;;;;4.55;2.85;;;;;;;;;;6336746;28;20289;-70
2023/08/24 06:17:30;;;;;;;5.30;2.92;;;;;;;;;;6336458;28;20297;-70
2023/08/24 06:20:35;;;;;;;3.45;3.05;;;;;;;;;;6337042;28;20310;-70
2023/08/24 06:23:39;;;;;;;4.20;2.78;;;;;;;;;;6336309;28;20400;-70
2023/08/24 06:26:43;;;;;;;5.68;3.08;;;;;;;;;;6337061;28;20293;-71
2023/08/24 06:29:47;;;;;;;3.42;3.08;;;;;;;;;;6303454;28;20297;-70
2023/08/24 06:32:51;;;;;;;3.53;2.60;;;;;;;;;;6335991;28;20526;-70
2023/08/24 06:35:56;;;;;;;3.50;3.17;;;;;;;;;;6336578;28;20476;-70
2023/08/24 06:39:00;;;;;;;2.65;2.45;;;;;;;;;;6336512;28;20301;-71
2023/08/24 06:42:04;;;;;;;6.43;3.08;;;;;;;;;;6336397;28;20333;-72
2023/08/24 06:45:10;;;;;;;4.05;2.70;;;;;;;;;;6308029;28;20290;-70
2023/08/24 06:48:14;;;;;;;2.70;2.60;;;;;;;;;;6311037;28;20282;-70
2023/08/24 06:51:19;;;;;;;5.60;3.25;;;;;;;;;;6310853;28;20607;-70
2023/08/24 06:54:23;;;;;;;3.63;2.80;;;;;;;;;;6328157;28;20293;-70
2023/08/24 06:57:29;;;;;;;5.03;3.13;;;;;;;;;;6335800;28;20293;-70
2023/08/24 07:00:35;;;;;;;5.75;2.90;;;;;;;;;;6317908;28;20329;-70
2023/08/24 07:03:39;;;;;;;4.80;2.90;;;;;;;;;;6316435;28;20301;-70
2023/08/24 07:06:45;;;;;;;3.72;2.80;;;;;;;;;;6335835;28;20313;-72
2023/08/24 07:09:49;;;;;;;3.72;2.83;;;;;;;;;;6304283;28;20302;-70
2023/08/24 07:12:52;;;;;;;3.67;2.97;;;;;;;;;;6318474;28;20290;-71
2023/08/24 07:15:57;;;;;;;4.13;2.70;;;;;;;;;;6310729;28;20286;-71
2023/08/24 07:19:00;;;;;;;8.60;2.60;;;;;;;;;;6309959;28;20290;-70
2023/08/24 07:22:06;;;;;;;7.28;2.58;;;;;;;;;;6310424;28;20366;-71
2023/08/24 07:25:11;;;;;;;4.85;2.53;;;;;;;;;;6309802;28;20582;-70
2023/08/24 07:28:15;;;;;;;15.90;3.30;;;;;;;;;;6309401;28;20290;-71
2023/08/24 07:31:19;;;;;;;4.53;2.70;;;;;;;;;;6310240;28;20293;-71
2023/08/24 07:34:23;;;;;;;5.45;2.83;;;;;;;;;;6309622;28;20290;-70
2023/08/24 07:37:28;;;;;;;4.60;2.90;;;;;;;;;;6309352;28;20302;-70
2023/08/24 07:40:32;;;;;;;5.00;2.72;;;;;;;;;;6309761;28;20519;-69
2023/08/24 07:43:36;;;;;;;4.93;2.75;;;;;;;;;;6309538;28;20567;-70
2023/08/24 07:46:40;;;;;;;8.57;3.10;;;;;;;;;;6309940;28;20294;-70
2023/08/24 07:49:44;;;;;;;2.80;2.55;;;;;;;;;;6306132;28;20294;-70
2023/08/24 07:52:50;;;;;;;4.13;2.40;;;;;;;;;;6333158;28;20293;-71
2023/08/24 07:55:57;;;;;;;2.95;2.47;;;;;;;;;;6334691;28;20626;-70
2023/08/24 07:59:01;;;;;;;3.85;2.63;;;;;;;;;;6333426;28;20289;-71
2023/08/24 08:02:05;;;;;;;6.75;2.67;;;;;;;;;;6334336;28;20242;-71
2023/08/24 08:05:10;;;;;;;10.52;2.90;;;;;;;;;;6333756;28;20317;-71
2023/08/24 08:08:15;;;;;;;7.47;2.83;;;;;;;;;;6334445;28;20293;-71
2023/08/24 08:11:21;;;;;;;4.57;2.33;;;;;;;;;;6334734;28;20466;-70
2023/08/24 08:14:27;;;;;;;5.45;2.60;;;;;;;;;;6333916;28;20586;-70
2023/08/24 08:17:33;;;;;;;3.05;2.85;;;;;;;;;;6332039;28;20310;-71
2023/08/24 08:20:37;;;;;;;3.08;2.60;;;;;;;;;;6309603;28;20570;-71
2023/08/24 08:23:42;;;;;;;3.47;2.25;;;;;;;;;;6308779;28;20559;-70
2023/08/24 08:26:45;;;;;;;3.20;2.60;;;;;;;;;;6309482;28;20303;-71
2023/08/24 08:29:49;;;;;;;7.88;3.03;;;;;;;;;;6310165;28;20308;-70
2023/08/24 08:32:54;;;;;;;4.75;2.83;;;;;;;;;;6308819;28;20286;-69
2023/08/24 08:35:58;;;;;;;4.50;2.50;;;;;;;;;;6312405;28;20302;-70
2023/08/24 08:39:06;;;;;;;3.75;2.80;;;;;;;;;;6313837;28;20473;-71
2023/08/24 08:42:13;;;;;;;4.18;2.50;;;;;;;;;;6314178;28;20622;-71
2023/08/24 08:45:18;;;;;;;5.22;2.67;;;;;;;;;;6313552;28;20299;-71
2023/08/24 08:48:22;;;;;;;4.63;2.50;;;;;;;;;;6313637;28;20294;-70
2023/08/24 08:51:27;;;;;;;5.63;2.90;;;;;;;;;;6314134;28;20301;-70
2023/08/24 08:54:32;;;;;;;3.50;2.80;;;;;;;;;;6313536;28;20286;-70
2023/08/24 08:57:36;;;;;;;5.07;2.60;;;;;;;;;;6312170;28;20294;-70
2023/08/24 09:00:40;;;;;;;14.20;2.85;;;;;;;;;;6313644;28;20298;-70
2023/08/24 09:03:45;;;;;;;4.70;2.13;;;;;;;;;;6313085;28;20309;-70
2023/08/24 09:06:49;;;;;;;2.47;2.28;;;;;;;;;;6313625;28;20470;-71
2023/08/24 09:09:54;;;;;;;3.50;2.58;;;;;;;;;;6317148;28;20567;-70
2023/08/24 09:12:58;;;;;;;3.28;2.50;;;;;;;;;;6338192;28;20286;-70
2023/08/24 09:16:06;;;;;;;2.38;2.28;;;;;;;;;;6337250;28;20288;-70
2023/08/24 09:19:12;;;;;;;3.58;2.47;;;;;;;;;;6363617;28;20293;-70
2023/08/24 09:22:16;;;;;;;3.67;2.38;;;;;;;;;;6364347;28;20312;-70
2023/08/24 09:25:22;;;;;;;6.32;2.50;;;;;;;;;;6363407;28;20297;-71
2023/08/24 09:28:25;;;;;;;3.05;2.40;;;;;;;;;;6363155;28;20297;-70
2023/08/24 09:31:37;;;;;;;4.57;2.45;;;;;;;;;;6363826;28;20338;-69
2023/08/24 09:34:41;;;;;;;9.70;2.83;;;;;;;;;;6363461;28;20293;-69
2023/08/24 09:37:45;;;;;;;4.82;2.30;;;;;;;;;;6363227;28;20297;-70
2023/08/24 09:40:54;;;;;;;7.78;2.65;;;;;;;;;;6363151;28;20289;-70
2023/08/24 09:44:04;;;;;;;3.75;2.53;;;;;;;;;;6362667;28;20293;-70
2023/08/24 09:47:11;;;;;;;3.45;2.33;;;;;;;;;;6360946;28;20285;-71
2023/08/24 09:50:15;;;;;;;3.03;2.70;;;;;;;;;;6362920;28;20297;-70
2023/08/24 09:53:20;;;;;;;3.17;2.63;;;;;;;;;;6362367;28;20577;-69
2023/08/24 09:56:26;;;;;;;3.15;2.40;;;;;;;;;;6361643;28;20526;-70
2023/08/24 09:59:32;;;;;;;2.45;2.20;;;;;;;;;;6362239;28;20293;-70
2023/08/24 10:02:37;;;;;;;4.00;2.40;;;;;;;;;;6361709;28;20352;-70
2023/08/24 10:05:41;;;;;;;3.78;3.00;;;;;;;;;;6312042;28;20290;-70
2023/08/24 10:09:04;;;;;;;3.13;2.83;;;;;;;;;;6311372;28;20294;-70
2023/08/24 10:12:10;;;;;;;2.72;2.53;;;;;;;;;;6301508;28;20295;-71
2023/08/24 10:15:14;;;;;;;4.80;2.65;;;;;;;;;;6286186;28;20291;-71
2023/08/24 10:18:19;;;;;;;4.22;2.90;;;;;;;;;;6286578;28;20287;-71
2023/08/24 10:21:25;;;;;;;6.20;2.90;;;;;;;;;;6286712;28;20290;-71
2023/08/24 10:24:29;;;;;;;4.28;2.60;;;;;;;;;;6286248;28;20295;-70
2023/08/24 10:27:34;;;;;;;5.70;2.30;;;;;;;;;;6286407;28;20314;-69
2023/08/24 10:30:39;;;;;;;4.68;2.28;;;;;;;;;;6286783;28;20315;-72
2023/08/24 10:33:44;;;;;;;3.45;2.28;;;;;;;;;;6285936;28;20298;-70
2023/08/24 10:36:48;;;;;;;10.77;2.78;;;;;;;;;;6286719;28;20291;-70
2023/08/24 10:39:52;;;;;;;4.18;3.00;;;;;;;;;;6286065;28;20299;-70
2023/08/24 10:42:58;;;;;;;2.10;2.00;;;;;;;;;;6285807;28;20290;-69
2023/08/24 10:46:03;;;;;;;5.38;2.40;;;;;;;;;;6286550;28;20291;-70
2023/08/24 10:49:08;;;;;;;4.78;2.42;;;;;;;;;;6285709;28;20604;-70
2023/08/24 10:52:20;;;;;;;5.07;1.98;;;;;;;;;;6286440;28;20298;-72
2023/08/24 10:55:27;;;;;;;4.25;2.17;;;;;;;;;;6285655;28;20299;-70
2023/08/24 10:58:36;;;;;;;3.38;2.30;;;;;;;;;;6285486;28;20295;-70
2023/08/24 11:01:41;;;;;;;4.65;2.30;;;;;;;;;;6286124;28;20295;-70
2023/08/24 11:05:05;;;;;;;6.22;2.17;;;;;;;;;;6302978;28;20306;-71
2023/08/24 11:08:09;;;;;;;2.75;1.95;;;;;;;;;;6309497;28;20299;-70
2023/08/24 11:11:19;;;;;;;2.60;1.90;;;;;;;;;;6325648;28;20234;-71
2023/08/24 11:14:26;;;;;;;3.13;2.13;;;;;;;;;;6335709;28;20290;-71
2023/08/24 11:17:32;;;;;;;2.08;1.98;;;;;;;;;;6335687;28;20304;-71
2023/08/24 11:20:37;;;;;;;6.95;1.63;;;;;;;;;;6336766;28;20535;-69
2023/08/24 11:23:41;;;;;;;3.25;1.60;;;;;;;;;;6334980;28;20293;-71
2023/08/24 11:26:47;;;;;;;1.80;1.70;;;;;;;;;;6335391;28;20301;-71
2023/08/24 11:30:00;;;;;;;1.50;1.45;;;;;;;;;;6334954;28;20314;-70
2023/08/24 11:33:05;;;;;;;2.58;1.77;;;;;;;;;;6334679;28;20286;-70
2023/08/24 11:36:09;;;;;;;3.25;1.92;;;;;;;;;;6335346;28;20329;-70
2023/08/24 11:39:17;;;;;;;1.83;1.75;;;;;;;;;;6333150;28;20297;-70
2023/08/24 11:42:21;;;;;;;3.20;1.70;;;;;;;;;;6334645;28;20297;-70
2023/08/24 11:45:31;;;;;;;3.70;1.80;;;;;;;;;;6335140;28;20293;-70
2023/08/24 11:48:37;;;;;;;3.03;2.22;;;;;;;;;;6334632;28;20382;-70
2023/08/24 11:51:40;;;;;;;7.03;1.92;;;;;;;;;;6335085;28;20297;-71
2023/08/24 11:54:46;;;;;;;2.20;2.10;;;;;;;;;;6334852;28;20294;-71
2023/08/24 11:57:50;;;;;;;2.97;1.90;;;;;;;;;;6334820;28;20476;-70
2023/08/24 12:00:56;;;;;;;3.70;1.83;;;;;;;;;;6335272;28;20302;-70
2023/08/24 12:04:00;;;;;;;2.47;1.70;;;;;;;;;;6345235;28;20515;-69
2023/08/24 12:07:10;;;;;;;1.83;1.70;;;;;;;;;;6360713;28;20292;-69
2023/08/24 12:10:14;;;;;;;1.92;1.80;;;;;;;;;;6352078;28;20294;-69
2023/08/24 12:13:18;;;;;;;3.55;2.03;;;;;;;;;;6354466;28;20293;-70
2023/08/24 12:16:24;;;;;;;4.13;2.13;;;;;;;;;;6360046;28;20292;-70
2023/08/24 12:19:27;;;;;;;2.05;1.98;;;;;;;;;;6359230;28;20297;-70
2023/08/24 12:22:32;;;;;;;1.70;1.70;;;;;;;;;;6340771;28;20292;-70
2023/08/24 12:25:39;;;;;;;5.03;1.95;;;;;;;;;;6359978;28;20284;-70
2023/08/24 12:28:43;;;;;;;1.83;1.65;;;;;;;;;;6359665;28;20300;-71
2023/08/24 12:31:48;;;;;;;5.25;1.90;;;;;;;;;;6360017;28;20297;-70
2023/08/24 12:34:52;;;;;;;1.88;1.70;;;;;;;;;;6358788;28;20290;-71
2023/08/24 12:37:56;;;;;;;1.88;1.50;;;;;;;;;;6359177;28;20313;-70
2023/08/24 12:41:00;;;;;;;3.78;1.80;;;;;;;;;;6358852;28;20486;-71
2023/08/24 12:44:05;;;;;;;2.88;2.00;;;;;;;;;;6359186;28;20300;-70
2023/08/24 12:47:11;;;;;;;2.50;1.95;;;;;;;;;;6360306;28;20277;-70
2023/08/24 12:50:14;;;;;;;6.63;1.90;;;;;;;;;;6358717;28;20461;-70
2023/08/24 12:53:18;;;;;;;1.80;1.70;;;;;;;;;;6359119;28;20356;-71
2023/08/24 12:56:22;;;;;;;1.92;1.60;;;;;;;;;;6359986;28;20292;-70
2023/08/24 12:59:26;;;;;;;1.63;1.50;;;;;;;;;;6359123;28;20289;-70
2023/08/24 13:02:31;;;;;;;1.90;1.73;;;;;;;;;;6358879;28;20293;-70
2023/08/24 13:05:42;;;;;;;3.45;1.60;;;;;;;;;;6308754;28;20298;-69
2023/08/24 13:08:45;;;;;;;2.72;1.70;;;;;;;;;;6306937;28;20298;-70
2023/08/24 13:11:50;;;;;;;4.07;1.90;;;;;;;;;;6288686;28;20308;-70
2023/08/24 13:14:54;;;;;;;3.50;1.70;;;;;;;;;;6283606;28;20299;-70
2023/08/24 13:17:59;;;;;;;1.85;1.75;;;;;;;;;;6283566;28;20300;-70
2023/08/24 13:21:03;;;;;;;1.90;1.80;;;;;;;;;;6285806;28;20303;-70
2023/08/24 13:24:07;;;;;;;1.65;1.55;;;;;;;;;;6288101;28;20287;-70
2023/08/24 13:27:11;;;;;;;1.80;1.52;;;;;;;;;;6288151;28;20286;-70
2023/08/24 13:30:15;;;;;;;1.30;1.30;;;;;;;;;;6286267;28;20295;-70
2023/08/24 13:33:20;;;;;;;3.83;1.60;;;;;;;;;;6287365;28;20290;-70
2023/08/24 13:36:24;;;;;;;1.73;1.63;;;;;;;;;;6287812;28;20398;-70
2023/08/24 13:39:28;;;;;;;1.60;1.50;;;;;;;;;;6287482;28;20294;-70
2023/08/24 13:42:32;;;;;;;4.88;1.58;;;;;;;;;;6287256;28;20314;-70
2023/08/24 13:45:36;;;;;;;2.95;1.73;;;;;;;;;;6287552;28;20295;-70
2023/08/24 13:48:41;;;;;;;2.40;1.73;;;;;;;;;;6286904;28;20298;-70
2023/08/24 13:51:45;;;;;;;1.90;1.58;;;;;;;;;;6287458;28;20339;-71
2023/08/24 13:54:49;;;;;;;7.15;1.52;;;;;;;;;;6287241;28;20478;-71
2023/08/24 13:58:12;;;;;;;2.05;1.50;;;;;;;;;;6287458;28;20363;-70
2023/08/24 14:01:16;;;;;;;1.50;1.50;;;;;;;;;;6287222;28;20559;-71
2023/08/24 14:04:21;;;;;;;1.73;1.60;;;;;;;;;;6298658;28;20587;-71
2023/08/24 14:07:25;;;;;;;3.08;1.63;;;;;;;;;;6311976;28;20382;-71
2023/08/24 14:10:29;;;;;;;1.70;1.60;;;;;;;;;;6321744;28;20293;-71
2023/08/24 14:13:33;;;;;;;4.35;1.60;;;;;;;;;;6314128;28;20314;-71
2023/08/24 14:16:37;;;;;;;2.50;1.90;;;;;;;;;;6311797;28;20308;-71
2023/08/24 14:19:42;;;;;;;2.05;1.65;;;;;;;;;;6311117;28;20347;-70
2023/08/24 14:22:48;;;;;;;3.45;1.77;;;;;;;;;;6311205;28;20286;-71
2023/08/24 14:25:52;;;;;;;1.55;1.55;;;;;;;;;;6311865;28;20298;-69
2023/08/24 14:28:57;;;;;;;1.48;1.48;;;;;;;;;;6311361;28;20313;-70
2023/08/24 14:32:01;;;;;;;2.35;1.80;;;;;;;;;;6310024;28;20433;-71
2023/08/24 14:35:07;;;;;;;5.93;1.90;;;;;;;;;;6311091;28;20298;-70
2023/08/24 14:38:11;;;;;;;2.22;1.83;;;;;;;;;;6310909;28;20287;-71
2023/08/24 14:41:15;;;;;;;2.05;1.60;;;;;;;;;;6311472;28;20247;-71
2023/08/24 14:44:19;;;;;;;1.80;1.70;;;;;;;;;;6310825;28;20299;-70
2023/08/24 14:47:23;;;;;;;2.38;1.70;;;;;;;;;;6310763;28;20310;-71
2023/08/24 14:50:29;;;;;;;2.53;1.80;;;;;;;;;;6310733;28;20297;-71
2023/08/24 14:53:33;;;;;;;1.67;1.58;;;;;;;;;;6310134;28;20295;-70
2023/08/24 14:56:36;;;;;;;3.45;1.80;;;;;;;;;;6310734;28;20301;-71
2023/08/24 14:59:40;;;;;;;4.15;2.00;;;;;;;;;;6310364;28;20513;-70
2023/08/24 15:02:44;;;;;;;4.75;1.85;;;;;;;;;;6309940;28;20282;-70
2023/08/24 15:06:00;;;;;;;1.92;1.48;;;;;;;;;;6310370;28;20286;-70
2023/08/24 15:09:04;;;;;;;2.05;1.95;;;;;;;;;;6309889;28;20390;-69
2023/08/24 15:12:08;;;;;;;4.65;2.67;;;;;;;;;;6322603;28;20595;-70
2023/08/24 15:15:14;;;;;;;2.50;1.70;;;;;;;;;;6309616;28;20294;-70
2023/08/24 15:18:18;;;;;;;1.75;1.65;;;;;;;;;;6309505;28;20393;-70
2023/08/24 15:21:23;;;;;;;1.52;1.52;;;;;;;;;;6309823;28;20290;-70
2023/08/24 15:24:27;;;;;;;1.35;1.35;;;;;;;;;;6309206;28;20298;-70
2023/08/24 15:27:31;;;;;;;1.70;1.60;;;;;;;;;;6309569;28;20294;-70
2023/08/24 15:30:35;;;;;;;2.30;1.90;;;;;;;;;;6309943;28;20297;-70
2023/08/24 15:33:39;;;;;;;1.75;1.60;;;;;;;;;;6310531;28;20290;-70
2023/08/24 15:36:45;;;;;;;2.58;1.77;;;;;;;;;;6310142;28;20289;-69
2023/08/24 15:39:48;;;;;;;4.72;1.92;;;;;;;;;;6309053;28;20453;-69
2023/08/24 15:42:52;;;;;;;2.03;1.42;;;;;;;;;;6309378;28;20295;-69
2023/08/24 15:45:56;;;;;;;1.83;1.75;;;;;;;;;;6309796;28;20294;-69
2023/08/24 15:49:01;;;;;;;1.75;1.70;;;;;;;;;;6309530;28;20294;-70
2023/08/24 15:52:06;;;;;;;1.65;1.55;;;;;;;;;;6310107;28;20298;-70
2023/08/24 15:55:10;;;;;;;1.38;1.38;;;;;;;;;;6309501;28;20299;-69
2023/08/24 15:58:14;;;;;;;2.13;1.52;;;;;;;;;;6309239;28;20610;-69
2023/08/24 16:01:18;;;;;;;1.92;1.80;;;;;;;;;;6309716;28;20289;-68
2023/08/24 16:04:22;;;;;;;2.85;2.70;;;;;;;;;;6308949;28;20354;-70
2023/08/24 16:07:28;;;;;;;18.85;10.18;;;;;;;;;;6309263;28;20309;-70
2023/08/24 16:10:31;;;;;;;3.38;2.00;;;;;;;;;;6310137;28;20307;-70
2023/08/24 16:13:35;;;;;;;3.10;1.80;;;;;;;;;;6330011;28;20302;-70
2023/08/24 16:16:39;;;;;;;2.20;1.70;;;;;;;;;;6334976;28;20321;-69
2023/08/24 16:19:45;;;;;;;2.08;1.70;;;;;;;;;;6334089;28;20297;-70
2023/08/24 16:22:50;;;;;;;2.40;1.80;;;;;;;;;;6334064;28;20289;-72
2023/08/24 16:25:54;;;;;;;7.68;1.77;;;;;;;;;;6334744;28;20289;-69
2023/08/24 16:28:58;;;;;;;1.70;1.60;;;;;;;;;;6334126;28;20289;-73
2023/08/24 16:32:02;;;;;;;2.05;1.65;;;;;;;;;;6333619;28;20277;-72
2023/08/24 16:35:06;;;;;;;2.30;1.80;;;;;;;;;;6333828;28;20293;-70
2023/08/24 16:38:12;;;;;;;2.72;1.63;;;;;;;;;;6333562;28;20301;-69
2023/08/24 16:41:15;;;;;;;2.75;2.05;;;;;;;;;;6333959;28;20401;-69
2023/08/24 16:44:19;;;;;;;4.07;2.10;;;;;;;;;;6333568;28;20305;-68
2023/08/24 16:47:23;;;;;;;2.20;2.08;;;;;;;;;;6333708;28;20282;-69
2023/08/24 16:50:27;;;;;;;3.13;2.00;;;;;;;;;;6334188;28;20302;-69
2023/08/24 16:53:32;;;;;;;2.67;2.00;;;;;;;;;;6333609;28;20539;-70
2023/08/24 16:56:36;;;;;;;2.03;1.90;;;;;;;;;;6336633;28;20309;-69
2023/08/24 16:59:40;;;;;;;2.03;1.80;;;;;;;;;;6339153;28;20310;-68
2023/08/24 17:02:44;;;;;;;3.15;2.78;;;;;;;;;;6338004;28;20419;-69
2023/08/24 17:05:48;;;;;;;5.80;3.53;;;;;;;;;;6364015;28;20581;-72
2023/08/24 17:08:53;;;;;;;16.63;6.15;;;;;;;;;;6363664;28;20296;-71
2023/08/24 17:11:57;;;;;;;20.30;7.00;;;;;;;;;;6351204;28;20296;-71
2023/08/24 17:15:00;;;;;;;9.13;5.07;;;;;;;;;;6363232;28;20372;-71
2023/08/24 17:18:05;;;;;;;15.27;7.45;;;;;;;;;;6363761;28;20293;-70
2023/08/24 17:21:09;;;;;;;4.93;4.38;;;;;;;;;;6363547;28;20301;-71
2023/08/24 17:24:14;;;;;;;4.78;2.72;;;;;;;;;;6363086;28;20432;-69
2023/08/24 17:27:18;;;;;;;3.17;2.90;;;;;;;;;;6363735;28;20297;-72
2023/08/24 17:30:22;;;;;;;4.72;2.13;;;;;;;;;;6363050;28;20292;-71
2023/08/24 17:33:26;;;;;;;15.40;6.38;;;;;;;;;;6362567;28;20297;-71
2023/08/24 17:36:29;;;;;;;4.00;2.83;;;;;;;;;;6363505;28;20296;-70
2023/08/24 17:39:35;;;;;;;9.27;4.35;;;;;;;;;;6362961;28;20284;-71
2023/08/24 17:42:39;;;;;;;3.35;3.15;;;;;;;;;;6362726;28;20292;-71
2023/08/24 17:45:44;;;;;;;4.35;3.10;;;;;;;;;;6363553;28;20300;-70
2023/08/24 17:48:47;;;;;;;2.72;2.53;;;;;;;;;;6362844;28;20288;-72
2023/08/24 17:51:51;;;;;;;2.67;2.53;;;;;;;;;;6363145;28;20281;-71
2023/08/24 17:54:56;;;;;;;4.93;3.45;;;;;;;;;;6362828;28;20292;-70
2023/08/24 17:58:00;;;;;;;3.00;2.90;;;;;;;;;;6344476;28;20281;-72
2023/08/24 18:01:04;;;;;;;8.25;3.67;;;;;;;;;;6362955;28;20308;-70
2023/08/24 18:04:08;;;;;;;4.82;3.80;;;;;;;;;;6362048;28;20314;-71
2023/08/24 18:07:11;;;;;;;3.40;3.20;;;;;;;;;;6361892;28;20296;-71
2023/08/24 18:10:17;;;;;;;3.70;3.40;;;;;;;;;;6355709;28;20285;-71
2023/08/24 18:13:21;;;;;;;8.20;4.82;;;;;;;;;;6357775;28;20324;-71
2023/08/24 18:16:24;;;;;;;4.13;3.70;;;;;;;;;;6364835;28;20392;-70
2023/08/24 18:19:28;;;;;;;4.03;3.72;;;;;;;;;;6366208;28;20293;-70
2023/08/24 18:22:33;;;;;;;7.07;3.80;;;;;;;;;;6346806;28;20486;-71
2023/08/24 18:25:38;;;;;;;5.78;3.55;;;;;;;;;;6365167;28;20593;-70
2023/08/24 18:28:42;;;;;;;7.80;4.47;;;;;;;;;;6364408;28;20305;-69